Time;durP1;ratioP1;P1;durP2;ratioP2;P2;SDS_P1;SDS_P2;PMS_P1;PMS_P2;Temp;Humidity;BMP_temperature;BMP_pressure;BME280_temperature;BME280_humidity;BME280_pressure;Samples;Min_cycle;Max_cycle;Signal;HPM_P1;HPM_P2
2023/04/23 00:01:56;;;;;;;70.75;38.97;;;;;;;;;;5063120;28;20064;-59
2023/04/23 00:04:24;;;;;;;71.15;37.70;;;;;;;;;;5057379;28;20536;-60
2023/04/23 00:06:51;;;;;;;70.82;36.53;;;;;;;;;;5063468;28;20565;-58
2023/04/23 00:09:17;;;;;;;72.13;39.53;;;;;;;;;;5063500;28;20221;-60
2023/04/23 00:11:44;;;;;;;73.97;39.38;;;;;;;;;;5066633;28;20147;-59
2023/04/23 00:14:10;;;;;;;72.50;39.10;;;;;;;;;;5061750;28;20503;-57
2023/04/23 00:16:38;;;;;;;77.07;41.50;;;;;;;;;;5054203;28;20063;-58
2023/04/23 00:19:04;;;;;;;68.57;38.28;;;;;;;;;;5062013;28;20132;-59
2023/04/23 00:21:30;;;;;;;79.53;42.13;;;;;;;;;;5046774;28;20064;-60
2023/04/23 00:23:57;;;;;;;77.65;40.88;;;;;;;;;;5057675;28;20444;-59
2023/04/23 00:26:24;;;;;;;76.82;40.28;;;;;;;;;;5064928;28;20048;-60
2023/04/23 00:28:50;;;;;;;78.32;42.60;;;;;;;;;;5069156;28;20083;-60
2023/04/23 00:31:16;;;;;;;78.80;41.97;;;;;;;;;;5057429;28;20053;-59
2023/04/23 00:33:43;;;;;;;68.93;38.08;;;;;;;;;;5060027;28;20052;-59
2023/04/23 00:36:09;;;;;;;74.13;40.17;;;;;;;;;;5060091;28;20144;-59
2023/04/23 00:38:36;;;;;;;76.13;39.40;;;;;;;;;;5060048;28;20049;-59
2023/04/23 00:41:02;;;;;;;79.28;40.65;;;;;;;;;;5062594;28;20080;-59
2023/04/23 00:43:29;;;;;;;76.97;40.05;;;;;;;;;;5062275;28;20140;-58
2023/04/23 00:45:56;;;;;;;75.82;39.50;;;;;;;;;;5061622;28;20059;-60
2023/04/23 00:48:23;;;;;;;72.45;40.00;;;;;;;;;;5060257;28;20165;-59
2023/04/23 00:50:56;;;;;;;72.45;40.75;;;;;;;;;;5048731;28;20053;-59
2023/04/23 00:53:22;;;;;;;76.72;41.38;;;;;;;;;;5051293;28;20172;-58
2023/04/23 00:55:49;;;;;;;75.70;39.80;;;;;;;;;;5061930;28;20167;-60
2023/04/23 00:58:16;;;;;;;80.22;40.00;;;;;;;;;;5059126;28;20516;-59
2023/04/23 01:00:45;;;;;;;75.25;40.25;;;;;;;;;;5060906;28;20553;-60
2023/04/23 01:03:11;;;;;;;77.68;41.38;;;;;;;;;;5052135;28;20049;-59
2023/04/23 01:05:40;;;;;;;66.65;38.60;;;;;;;;;;5052787;28;20512;-59
2023/04/23 01:08:08;;;;;;;73.78;39.00;;;;;;;;;;5061070;28;20508;-59
2023/04/23 01:10:35;;;;;;;73.40;37.65;;;;;;;;;;5067884;28;20634;-59
2023/04/23 01:13:01;;;;;;;67.38;37.03;;;;;;;;;;5062416;28;20053;-60
2023/04/23 01:15:28;;;;;;;68.10;37.72;;;;;;;;;;5063972;28;20120;-58
2023/04/23 01:17:57;;;;;;;69.97;38.53;;;;;;;;;;5050814;28;20057;-59
2023/04/23 01:20:24;;;;;;;73.03;39.42;;;;;;;;;;5059638;28;20053;-57
2023/04/23 01:22:50;;;;;;;72.78;39.55;;;;;;;;;;5047535;28;20475;-58
2023/04/23 01:25:17;;;;;;;73.57;38.20;;;;;;;;;;5050661;28;20080;-59
2023/04/23 01:27:43;;;;;;;74.00;40.25;;;;;;;;;;5061234;28;20053;-59
2023/04/23 01:30:10;;;;;;;73.68;39.55;;;;;;;;;;5051487;28;20040;-60
2023/04/23 01:32:38;;;;;;;72.95;39.67;;;;;;;;;;5059803;28;20136;-59
2023/04/23 01:35:07;;;;;;;73.10;40.90;;;;;;;;;;5059810;28;20068;-59
2023/04/23 01:37:34;;;;;;;67.20;37.72;;;;;;;;;;5046023;28;20057;-60
2023/04/23 01:40:00;;;;;;;68.28;38.58;;;;;;;;;;5053511;28;20053;-58
2023/04/23 01:42:27;;;;;;;68.85;38.75;;;;;;;;;;5060101;28;20111;-58
2023/04/23 01:44:54;;;;;;;77.07;40.42;;;;;;;;;;5055431;28;20064;-59
2023/04/23 01:47:20;;;;;;;77.60;40.17;;;;;;;;;;5042411;28;20053;-61
2023/04/23 01:49:46;;;;;;;73.55;38.67;;;;;;;;;;5042750;28;20170;-58
2023/04/23 01:52:13;;;;;;;73.35;40.72;;;;;;;;;;5055103;28;20389;-59
2023/04/23 01:54:39;;;;;;;79.13;39.65;;;;;;;;;;5047642;28;20144;-60
2023/04/23 01:57:06;;;;;;;78.82;41.50;;;;;;;;;;5048250;28;20053;-59
2023/04/23 01:59:33;;;;;;;75.25;38.28;;;;;;;;;;5062203;28;20592;-58
2023/04/23 02:01:59;;;;;;;71.22;38.38;;;;;;;;;;5049511;28;20170;-59
2023/04/23 02:04:26;;;;;;;69.53;37.88;;;;;;;;;;5056665;28;20558;-61
2023/04/23 02:06:53;;;;;;;67.43;38.22;;;;;;;;;;5046594;28;20558;-59
2023/04/23 02:09:20;;;;;;;68.75;36.45;;;;;;;;;;5050066;28;20160;-57
2023/04/23 02:11:46;;;;;;;79.60;39.83;;;;;;;;;;5071736;28;20090;-58
2023/04/23 02:14:13;;;;;;;77.97;40.15;;;;;;;;;;5053231;28;20205;-58
2023/04/23 02:16:39;;;;;;;70.55;37.08;;;;;;;;;;5052452;28;20534;-59
2023/04/23 02:19:06;;;;;;;77.70;40.22;;;;;;;;;;5060470;28;20049;-59
2023/04/23 02:21:32;;;;;;;72.22;38.78;;;;;;;;;;5060889;28;20489;-58
2023/04/23 02:23:58;;;;;;;71.22;38.63;;;;;;;;;;5072589;28;20140;-59
2023/04/23 02:26:25;;;;;;;73.32;38.70;;;;;;;;;;5067655;28;20060;-57
2023/04/23 02:28:51;;;;;;;72.53;37.58;;;;;;;;;;5052673;28;20527;-59
2023/04/23 02:31:19;;;;;;;74.10;40.13;;;;;;;;;;5058728;28;20729;-59
2023/04/23 02:33:46;;;;;;;74.03;38.22;;;;;;;;;;5045426;28;20077;-60
2023/04/23 02:36:12;;;;;;;75.03;37.85;;;;;;;;;;5050567;28;20519;-59
2023/04/23 02:38:41;;;;;;;68.25;37.05;;;;;;;;;;5076518;28;20059;-60
2023/04/23 02:41:07;;;;;;;74.05;37.85;;;;;;;;;;5070877;28;20099;-60
2023/04/23 02:43:34;;;;;;;72.60;36.78;;;;;;;;;;5059413;28;20107;-60
2023/04/23 02:46:07;;;;;;;71.82;37.53;;;;;;;;;;5053852;28;20053;-59
2023/04/23 02:48:38;;;;;;;71.75;38.13;;;;;;;;;;5053524;28;20049;-60
2023/04/23 02:51:05;;;;;;;64.75;35.25;;;;;;;;;;5064891;28;20534;-60
2023/04/23 02:53:31;;;;;;;68.30;37.35;;;;;;;;;;5044067;28;20088;-60
2023/04/23 02:55:58;;;;;;;70.72;35.30;;;;;;;;;;5067433;28;20053;-59
2023/04/23 02:58:25;;;;;;;67.45;35.42;;;;;;;;;;5041453;28;20053;-59
2023/04/23 03:00:52;;;;;;;74.03;37.03;;;;;;;;;;5060780;28;20171;-58
2023/04/23 03:03:18;;;;;;;72.70;36.97;;;;;;;;;;5069895;28;20053;-58
2023/04/23 03:05:45;;;;;;;71.80;37.65;;;;;;;;;;5068351;28;20508;-60
2023/04/23 03:08:11;;;;;;;72.38;39.22;;;;;;;;;;5063517;28;20049;-59
2023/04/23 03:10:38;;;;;;;65.63;35.30;;;;;;;;;;5062792;28;20064;-59
2023/04/23 03:13:04;;;;;;;67.90;38.45;;;;;;;;;;5064958;28;20515;-59
2023/04/23 03:15:31;;;;;;;71.32;36.90;;;;;;;;;;5062017;28;22155;-59
2023/04/23 03:17:58;;;;;;;72.20;38.05;;;;;;;;;;5067987;28;20059;-58
2023/04/23 03:20:25;;;;;;;77.30;35.00;;;;;;;;;;5048911;28;20084;-57
2023/04/23 03:22:51;;;;;;;67.03;36.03;;;;;;;;;;5065524;28;20052;-59
2023/04/23 03:25:19;;;;;;;68.78;35.83;;;;;;;;;;5084814;28;20570;-60
2023/04/23 03:27:45;;;;;;;67.47;35.42;;;;;;;;;;5053615;28;20130;-59
2023/04/23 03:30:12;;;;;;;60.80;33.15;;;;;;;;;;5047630;28;20057;-59
2023/04/23 03:32:38;;;;;;;63.63;33.13;;;;;;;;;;5068179;28;20138;-57
2023/04/23 03:35:05;;;;;;;65.32;34.35;;;;;;;;;;5051569;28;20045;-60
2023/04/23 03:37:31;;;;;;;64.30;34.35;;;;;;;;;;5059344;28;20111;-58
2023/04/23 03:39:58;;;;;;;58.50;32.20;;;;;;;;;;5083196;28;20057;-59
2023/04/23 03:42:24;;;;;;;61.30;33.45;;;;;;;;;;5070677;28;20107;-59
2023/04/23 03:44:50;;;;;;;62.65;33.08;;;;;;;;;;5063466;28;20052;-57
2023/04/23 03:47:17;;;;;;;56.67;30.45;;;;;;;;;;5053793;28;20610;-58
2023/04/23 03:49:43;;;;;;;65.97;31.98;;;;;;;;;;5047445;28;20065;-59
2023/04/23 03:52:10;;;;;;;53.30;30.92;;;;;;;;;;5060100;28;20057;-59
2023/04/23 03:54:36;;;;;;;50.20;27.58;;;;;;;;;;5043617;28;20498;-59
2023/04/23 03:57:02;;;;;;;48.60;28.95;;;;;;;;;;5050101;28;20104;-59
2023/04/23 03:59:29;;;;;;;56.92;30.60;;;;;;;;;;5068420;28;20148;-58
2023/04/23 04:01:55;;;;;;;51.03;29.23;;;;;;;;;;5064501;28;20697;-60
2023/04/23 04:04:21;;;;;;;48.95;28.00;;;;;;;;;;5084097;28;20132;-60
2023/04/23 04:06:48;;;;;;;54.50;28.63;;;;;;;;;;5066084;28;20783;-59
2023/04/23 04:09:15;;;;;;;55.63;28.95;;;;;;;;;;5054824;28;20049;-59
2023/04/23 04:11:42;;;;;;;50.05;27.98;;;;;;;;;;5065293;28;20064;-59
2023/04/23 04:14:08;;;;;;;49.47;26.58;;;;;;;;;;5044520;28;20423;-59
2023/04/23 04:16:35;;;;;;;49.53;29.23;;;;;;;;;;5058109;28;20687;-56
2023/04/23 04:19:01;;;;;;;49.83;26.08;;;;;;;;;;5063154;28;20053;-59
2023/04/23 04:21:28;;;;;;;50.95;28.92;;;;;;;;;;5049386;28;20088;-59
2023/04/23 04:23:55;;;;;;;48.00;26.92;;;;;;;;;;5058038;28;20510;-59
2023/04/23 04:26:22;;;;;;;50.88;27.30;;;;;;;;;;5069345;28;20086;-59
2023/04/23 04:28:48;;;;;;;53.53;27.95;;;;;;;;;;5053627;28;20058;-59
2023/04/23 04:31:14;;;;;;;55.00;28.42;;;;;;;;;;5055127;28;20555;-59
2023/04/23 04:33:42;;;;;;;47.75;27.25;;;;;;;;;;5064113;28;20413;-59
2023/04/23 04:36:08;;;;;;;47.17;26.02;;;;;;;;;;5078150;28;20053;-60
2023/04/23 04:38:38;;;;;;;48.97;27.63;;;;;;;;;;5062735;28;20123;-58
2023/04/23 04:41:05;;;;;;;46.40;26.67;;;;;;;;;;5060203;28;20537;-59
2023/04/23 04:43:31;;;;;;;46.10;26.13;;;;;;;;;;5042791;28;20584;-59
2023/04/23 04:45:58;;;;;;;46.40;26.83;;;;;;;;;;5065942;28;20152;-55
2023/04/23 04:48:24;;;;;;;47.65;26.73;;;;;;;;;;5043402;28;20111;-59
2023/04/23 04:50:51;;;;;;;45.80;25.90;;;;;;;;;;5062409;28;20107;-59
2023/04/23 04:53:17;;;;;;;44.35;26.10;;;;;;;;;;5054393;28;20388;-59
2023/04/23 04:55:44;;;;;;;50.67;27.75;;;;;;;;;;5046086;28;20057;-60
2023/04/23 04:58:11;;;;;;;47.72;27.02;;;;;;;;;;5055851;28;20450;-59
2023/04/23 05:00:37;;;;;;;47.50;26.55;;;;;;;;;;5056762;28;20519;-60
2023/04/23 05:03:04;;;;;;;47.35;26.65;;;;;;;;;;5062946;28;20053;-60
2023/04/23 05:05:31;;;;;;;43.30;26.58;;;;;;;;;;5060965;28;20053;-58
2023/04/23 05:08:00;;;;;;;46.47;26.25;;;;;;;;;;5058206;28;20063;-58
2023/04/23 05:10:28;;;;;;;44.55;25.85;;;;;;;;;;5062178;28;20064;-61
2023/04/23 05:12:57;;;;;;;41.40;24.98;;;;;;;;;;5062250;28;20056;-60
2023/04/23 05:15:23;;;;;;;43.88;25.13;;;;;;;;;;5059419;28;20076;-59
2023/04/23 05:17:52;;;;;;;44.22;24.30;;;;;;;;;;5063247;28;20114;-59
2023/04/23 05:20:19;;;;;;;44.20;25.13;;;;;;;;;;5069432;28;20064;-59
2023/04/23 05:22:45;;;;;;;42.47;25.13;;;;;;;;;;5058583;28;20118;-60
2023/04/23 05:25:12;;;;;;;39.25;23.90;;;;;;;;;;5041769;28;20053;-59
2023/04/23 05:27:38;;;;;;;41.08;24.88;;;;;;;;;;5041145;28;20056;-59
2023/04/23 05:30:08;;;;;;;41.60;24.98;;;;;;;;;;5053602;28;20096;-60
2023/04/23 05:32:35;;;;;;;47.90;25.15;;;;;;;;;;5062508;28;20053;-59
2023/04/23 05:35:02;;;;;;;38.17;23.40;;;;;;;;;;5062937;28;20099;-59
2023/04/23 05:37:29;;;;;;;41.22;23.80;;;;;;;;;;5061648;28;20052;-59
2023/04/23 05:39:57;;;;;;;41.15;24.50;;;;;;;;;;5042606;28;20083;-59
2023/04/23 05:42:24;;;;;;;40.40;23.88;;;;;;;;;;5061986;28;20131;-59
2023/04/23 05:44:50;;;;;;;42.42;25.25;;;;;;;;;;5060899;28;20146;-59
2023/04/23 05:47:16;;;;;;;36.47;23.63;;;;;;;;;;5052421;28;20045;-60
2023/04/23 05:49:43;;;;;;;36.97;23.85;;;;;;;;;;5053452;28;20587;-58
2023/04/23 05:52:09;;;;;;;37.13;24.83;;;;;;;;;;5059105;28;20349;-60
2023/04/23 05:54:35;;;;;;;37.13;24.05;;;;;;;;;;5051366;28;20045;-60
2023/04/23 05:57:03;;;;;;;35.20;21.98;;;;;;;;;;5063293;28;20500;-59
2023/04/23 05:59:30;;;;;;;36.85;24.30;;;;;;;;;;5046893;28;20144;-57
2023/04/23 06:01:57;;;;;;;37.33;22.90;;;;;;;;;;5051362;28;20052;-58
2023/04/23 06:04:24;;;;;;;31.63;20.73;;;;;;;;;;5055932;28;20135;-59
2023/04/23 06:06:50;;;;;;;38.08;22.77;;;;;;;;;;5059581;28;20397;-59
2023/04/23 06:09:16;;;;;;;36.33;22.05;;;;;;;;;;5059044;28;20487;-59
2023/04/23 06:11:43;;;;;;;34.03;20.92;;;;;;;;;;5064795;28;20053;-60
2023/04/23 06:14:09;;;;;;;37.70;23.67;;;;;;;;;;5060124;28;20144;-59
2023/04/23 06:16:36;;;;;;;34.85;21.40;;;;;;;;;;5059924;28;20059;-59
2023/04/23 06:19:02;;;;;;;33.65;22.40;;;;;;;;;;5046269;28;20633;-60
2023/04/23 06:21:29;;;;;;;34.55;20.95;;;;;;;;;;5056071;28;20084;-59
2023/04/23 06:23:55;;;;;;;33.75;21.55;;;;;;;;;;5054894;28;20053;-59
2023/04/23 06:26:22;;;;;;;38.97;22.98;;;;;;;;;;5042134;28;20050;-59
2023/04/23 06:28:48;;;;;;;33.80;21.50;;;;;;;;;;5041772;28;20068;-59
2023/04/23 06:31:14;;;;;;;33.58;22.48;;;;;;;;;;5048691;28;20058;-58
2023/04/23 06:33:41;;;;;;;38.65;22.75;;;;;;;;;;5063050;28;20499;-59
2023/04/23 06:36:09;;;;;;;34.63;20.70;;;;;;;;;;5053251;28;20072;-60
2023/04/23 06:38:36;;;;;;;30.70;20.85;;;;;;;;;;5062735;28;20529;-60
2023/04/23 06:41:03;;;;;;;33.28;21.83;;;;;;;;;;5065262;28;20055;-59
2023/04/23 06:43:30;;;;;;;33.25;20.73;;;;;;;;;;5060497;28;20497;-59
2023/04/23 06:45:56;;;;;;;35.25;21.27;;;;;;;;;;5064275;28;20052;-59
2023/04/23 06:48:24;;;;;;;30.67;20.92;;;;;;;;;;5056111;28;20057;-60
2023/04/23 06:50:51;;;;;;;27.70;20.05;;;;;;;;;;5051521;28;20084;-60
2023/04/23 06:53:17;;;;;;;31.77;19.90;;;;;;;;;;5062875;28;20049;-58
2023/04/23 06:55:44;;;;;;;29.52;19.38;;;;;;;;;;5065010;28;20148;-60
2023/04/23 06:58:10;;;;;;;27.98;18.25;;;;;;;;;;5073161;28;20317;-59
2023/04/23 07:00:39;;;;;;;31.95;19.50;;;;;;;;;;5064796;28;20056;-60
2023/04/23 07:03:06;;;;;;;25.02;17.52;;;;;;;;;;5063267;28;20053;-59
2023/04/23 07:05:32;;;;;;;24.90;17.63;;;;;;;;;;5069505;28;20591;-59
2023/04/23 07:07:59;;;;;;;26.73;17.27;;;;;;;;;;5065241;28;20069;-58
2023/04/23 07:10:25;;;;;;;22.17;16.05;;;;;;;;;;5067731;28;20062;-59
2023/04/23 07:12:52;;;;;;;22.52;16.40;;;;;;;;;;5042949;28;20053;-60
2023/04/23 07:15:18;;;;;;;23.02;16.63;;;;;;;;;;5053037;28;20240;-60
2023/04/23 07:17:45;;;;;;;23.27;15.23;;;;;;;;;;5047495;28;20108;-61
2023/04/23 07:20:11;;;;;;;22.17;15.30;;;;;;;;;;5054372;28;20081;-60
2023/04/23 07:22:37;;;;;;;23.13;15.75;;;;;;;;;;5057333;28;20061;-60
2023/04/23 07:25:04;;;;;;;22.15;14.55;;;;;;;;;;5045167;28;20057;-59
2023/04/23 07:27:31;;;;;;;19.15;13.73;;;;;;;;;;5068251;28;20052;-58
2023/04/23 07:29:57;;;;;;;20.50;14.60;;;;;;;;;;5073761;28;20060;-59
2023/04/23 07:32:26;;;;;;;17.10;13.50;;;;;;;;;;5067374;28;20049;-61
2023/04/23 07:34:55;;;;;;;20.58;14.27;;;;;;;;;;5061904;28;20479;-58
2023/04/23 07:37:21;;;;;;;16.83;12.80;;;;;;;;;;5061342;28;20532;-60
2023/04/23 07:39:48;;;;;;;18.08;12.93;;;;;;;;;;5056337;28;20092;-60
2023/04/23 07:42:14;;;;;;;15.68;12.02;;;;;;;;;;5044678;28;20462;-61
2023/04/23 07:44:41;;;;;;;18.08;13.30;;;;;;;;;;5062501;28;20136;-59
2023/04/23 07:47:07;;;;;;;14.95;11.88;;;;;;;;;;5060193;28;20049;-59
2023/04/23 07:49:33;;;;;;;16.90;10.38;;;;;;;;;;5069900;28;20057;-60
2023/04/23 07:52:00;;;;;;;13.27;10.23;;;;;;;;;;5055444;28;20547;-60
2023/04/23 07:54:26;;;;;;;15.63;9.52;;;;;;;;;;5043846;28;20053;-64
2023/04/23 07:56:53;;;;;;;15.00;10.38;;;;;;;;;;5056471;28;20056;-60
2023/04/23 07:59:19;;;;;;;15.02;9.90;;;;;;;;;;5060564;28;20045;-60
2023/04/23 08:01:45;;;;;;;16.70;9.27;;;;;;;;;;5055579;28;20053;-61
2023/04/23 08:04:12;;;;;;;16.13;10.25;;;;;;;;;;5059861;28;20547;-60
2023/04/23 08:06:40;;;;;;;12.52;8.65;;;;;;;;;;5068742;28;20053;-60
2023/04/23 08:09:08;;;;;;;12.35;8.55;;;;;;;;;;5058243;28;20482;-61
2023/04/23 08:11:34;;;;;;;10.90;7.72;;;;;;;;;;5049875;28;20091;-60
2023/04/23 08:14:00;;;;;;;10.60;7.80;;;;;;;;;;5061139;28;20057;-59
2023/04/23 08:16:27;;;;;;;12.73;7.72;;;;;;;;;;5052726;28;20144;-59
2023/04/23 08:18:55;;;;;;;11.00;8.43;;;;;;;;;;5043550;28;20120;-60
2023/04/23 08:21:31;;;;;;;14.32;8.00;;;;;;;;;;5052728;28;20061;-59
2023/04/23 08:23:58;;;;;;;10.85;7.10;;;;;;;;;;5052927;28;20140;-58
2023/04/23 08:26:25;;;;;;;16.05;7.15;;;;;;;;;;5054977;28;20057;-59
2023/04/23 08:28:52;;;;;;;10.57;6.18;;;;;;;;;;5054219;28;20057;-59
2023/04/23 08:31:18;;;;;;;10.30;6.43;;;;;;;;;;5060686;28;20509;-60
2023/04/23 08:33:52;;;;;;;8.75;6.03;;;;;;;;;;5058506;28;20550;-59
2023/04/23 08:36:18;;;;;;;8.35;5.35;;;;;;;;;;5045207;28;20131;-60
2023/04/23 08:38:45;;;;;;;9.75;6.63;;;;;;;;;;5056592;28;20137;-59
2023/04/23 08:41:13;;;;;;;17.70;5.97;;;;;;;;;;5065967;28;20435;-59
2023/04/23 08:43:43;;;;;;;13.57;5.07;;;;;;;;;;5071859;28;20060;-60
2023/04/23 08:46:11;;;;;;;10.07;4.93;;;;;;;;;;5060702;28;20525;-60
2023/04/23 08:48:38;;;;;;;8.95;5.10;;;;;;;;;;5061576;28;20057;-60
2023/04/23 08:51:06;;;;;;;11.13;4.78;;;;;;;;;;5058288;28;20058;-59
2023/04/23 08:53:32;;;;;;;16.92;5.35;;;;;;;;;;5065060;28;20052;-60
2023/04/23 08:55:59;;;;;;;9.75;5.30;;;;;;;;;;5083705;28;20053;-56
2023/04/23 08:58:26;;;;;;;10.40;4.68;;;;;;;;;;5068317;28;20056;-60
2023/04/23 09:00:54;;;;;;;9.25;4.53;;;;;;;;;;5063103;27;20727;-60
2023/04/23 09:03:21;;;;;;;8.45;4.28;;;;;;;;;;5069512;28;20056;-60
2023/04/23 09:05:49;;;;;;;8.23;4.20;;;;;;;;;;5047716;28;20485;-59
2023/04/23 09:08:15;;;;;;;10.10;3.92;;;;;;;;;;5042711;28;20535;-60
2023/04/23 09:10:42;;;;;;;11.45;4.32;;;;;;;;;;5060689;28;20048;-60
2023/04/23 09:13:11;;;;;;;12.07;4.18;;;;;;;;;;5072541;28;20460;-61
2023/04/23 09:15:42;;;;;;;12.07;3.97;;;;;;;;;;5042619;28;20053;-60
2023/04/23 09:18:09;;;;;;;12.75;4.47;;;;;;;;;;5044801;28;20598;-60
2023/04/23 09:20:36;;;;;;;12.48;4.03;;;;;;;;;;5070104;28;20586;-59
2023/04/23 09:23:06;;;;;;;10.57;3.75;;;;;;;;;;5062294;28;20439;-60
2023/04/23 09:25:32;;;;;;;6.80;3.50;;;;;;;;;;5071657;28;20044;-60
2023/04/23 09:28:02;;;;;;;13.45;3.60;;;;;;;;;;5059843;28;20057;-60
2023/04/23 09:30:29;;;;;;;6.53;3.55;;;;;;;;;;5060654;28;20119;-60
2023/04/23 09:32:55;;;;;;;8.05;2.95;;;;;;;;;;5061114;28;20148;-60
2023/04/23 09:35:27;;;;;;;5.40;3.03;;;;;;;;;;5063037;28;20132;-60
2023/04/23 09:37:53;;;;;;;9.30;3.03;;;;;;;;;;5061288;28;20136;-60
2023/04/23 09:40:21;;;;;;;6.72;3.55;;;;;;;;;;5053846;28;20393;-60
2023/04/23 09:42:48;;;;;;;8.85;2.50;;;;;;;;;;5054985;28;20083;-60
2023/04/23 09:45:15;;;;;;;6.18;2.88;;;;;;;;;;5051768;28;20103;-59
2023/04/23 09:47:57;;;;;;;10.93;3.50;;;;;;;;;;5042118;28;20057;-60
2023/04/23 09:50:30;;;;;;;8.00;3.80;;;;;;;;;;5062377;28;20418;-60
2023/04/23 09:52:57;;;;;;;9.18;3.00;;;;;;;;;;5062166;28;20053;-59
2023/04/23 09:55:30;;;;;;;8.98;3.58;;;;;;;;;;5061553;28;20083;-59
2023/04/23 09:57:57;;;;;;;8.77;2.60;;;;;;;;;;5062518;28;20052;-59
2023/04/23 10:00:28;;;;;;;6.57;2.60;;;;;;;;;;5062020;28;20053;-60
2023/04/23 10:02:55;;;;;;;5.68;2.95;;;;;;;;;;5062958;28;20053;-60
2023/04/23 10:05:22;;;;;;;9.43;3.03;;;;;;;;;;5058132;28;20063;-60
2023/04/23 10:07:57;;;;;;;9.40;2.80;;;;;;;;;;5055101;28;20140;-59
2023/04/23 10:10:23;;;;;;;13.63;2.63;;;;;;;;;;5059977;28;20382;-59
2023/04/23 10:12:51;;;;;;;9.82;2.53;;;;;;;;;;5053806;28;20059;-60
2023/04/23 10:15:22;;;;;;;7.60;2.35;;;;;;;;;;5063011;28;20139;-59
2023/04/23 10:17:49;;;;;;;7.00;2.50;;;;;;;;;;5064539;28;20053;-60
2023/04/23 10:20:16;;;;;;;8.35;2.88;;;;;;;;;;5062427;28;20547;-60
2023/04/23 10:22:43;;;;;;;7.47;2.60;;;;;;;;;;5049666;28;20060;-60
2023/04/23 10:25:10;;;;;;;9.77;2.40;;;;;;;;;;5065871;28;20053;-60
2023/04/23 10:27:40;;;;;;;7.15;3.03;;;;;;;;;;5058459;28;20496;-61
2023/04/23 10:30:19;;;;;;;10.40;2.72;;;;;;;;;;5050344;28;20354;-52
2023/04/23 10:32:46;;;;;;;8.57;2.10;;;;;;;;;;5051322;28;20045;-52
2023/04/23 10:35:13;;;;;;;5.75;1.90;;;;;;;;;;5054082;28;20061;-60
2023/04/23 10:37:40;;;;;;;8.55;2.50;;;;;;;;;;5065068;28;20535;-59
2023/04/23 10:40:12;;;;;;;11.85;2.95;;;;;;;;;;5057543;28;20530;-60
2023/04/23 10:42:39;;;;;;;7.00;2.28;;;;;;;;;;5081036;27;20068;-59
2023/04/23 10:45:16;;;;;;;5.32;1.90;;;;;;;;;;5071203;28;20058;-59
2023/04/23 10:47:46;;;;;;;6.30;2.53;;;;;;;;;;5068446;28;20530;-60
2023/04/23 10:50:23;;;;;;;6.10;2.10;;;;;;;;;;5053170;28;20822;-59
2023/04/23 10:52:53;;;;;;;10.70;1.90;;;;;;;;;;5058031;28;20048;-57
2023/04/23 10:55:20;;;;;;;6.72;1.98;;;;;;;;;;5062486;28;20525;-56
2023/04/23 10:57:57;;;;;;;8.13;2.30;;;;;;;;;;5062086;28;20053;-60
2023/04/23 11:00:28;;;;;;;7.43;2.22;;;;;;;;;;5059989;28;20499;-59
2023/04/23 11:02:55;;;;;;;7.38;3.10;;;;;;;;;;5064712;28;20550;-61
2023/04/23 11:05:24;;;;;;;4.57;2.13;;;;;;;;;;5063092;28;20056;-59
2023/04/23 11:08:03;;;;;;;5.88;2.95;;;;;;;;;;5062710;28;20144;-59
2023/04/23 11:10:50;;;;;;;4.47;1.88;;;;;;;;;;5050052;28;20063;-60
2023/04/23 11:13:21;;;;;;;6.97;1.70;;;;;;;;;;5064906;28;20378;-60
2023/04/23 11:15:47;;;;;;;7.18;3.78;;;;;;;;;;5061832;28;20632;-58
2023/04/23 11:18:13;;;;;;;5.57;2.03;;;;;;;;;;5063992;28;20049;-59
2023/04/23 11:20:40;;;;;;;5.13;2.05;;;;;;;;;;5048936;28;20058;-58
2023/04/23 11:23:07;;;;;;;4.55;1.92;;;;;;;;;;5046689;28;20053;-56
2023/04/23 11:25:34;;;;;;;6.97;1.88;;;;;;;;;;5049836;28;20526;-58
2023/04/23 11:28:00;;;;;;;5.95;1.90;;;;;;;;;;5063230;28;20522;-57
2023/04/23 11:30:28;;;;;;;4.80;1.33;;;;;;;;;;5061722;28;20156;-56
2023/04/23 11:32:55;;;;;;;4.07;1.67;;;;;;;;;;5064122;28;20087;-60
2023/04/23 11:35:23;;;;;;;7.35;1.42;;;;;;;;;;5056031;28;20499;-60
2023/04/23 11:37:49;;;;;;;6.18;2.05;;;;;;;;;;5044585;28;20065;-59
2023/04/23 11:40:18;;;;;;;4.70;1.30;;;;;;;;;;5046328;28;20152;-60
2023/04/23 11:42:46;;;;;;;2.50;1.15;;;;;;;;;;5050667;28;20053;-60
2023/04/23 11:45:19;;;;;;;5.65;1.85;;;;;;;;;;5059690;28;20513;-59
2023/04/23 11:47:46;;;;;;;6.35;1.77;;;;;;;;;;5046500;28;20057;-60
2023/04/23 11:50:16;;;;;;;10.18;1.95;;;;;;;;;;5061684;28;20057;-57
2023/04/23 11:52:43;;;;;;;7.47;1.35;;;;;;;;;;5069747;28;20053;-57
2023/04/23 11:55:10;;;;;;;6.28;1.48;;;;;;;;;;5066032;28;20131;-57
2023/04/23 11:57:40;;;;;;;4.93;1.95;;;;;;;;;;5062177;28;20099;-60
2023/04/23 12:00:25;;;;;;;5.93;1.42;;;;;;;;;;5064280;28;20566;-60
2023/04/23 12:02:53;;;;;;;3.60;1.38;;;;;;;;;;5063948;28;20083;-59
2023/04/23 12:05:20;;;;;;;7.60;1.90;;;;;;;;;;5061277;28;20053;-60
2023/04/23 12:07:47;;;;;;;4.50;1.40;;;;;;;;;;5053910;28;20510;-57
2023/04/23 12:10:20;;;;;;;5.00;1.50;;;;;;;;;;5062271;28;20185;-56
2023/04/23 12:12:50;;;;;;;4.15;1.40;;;;;;;;;;5063208;28;20553;-60
2023/04/23 12:15:17;;;;;;;7.53;1.83;;;;;;;;;;5048618;28;20096;-61
2023/04/23 12:17:47;;;;;;;5.90;1.67;;;;;;;;;;5049489;28;20084;-59
2023/04/23 12:20:20;;;;;;;7.05;1.75;;;;;;;;;;5053535;28;20112;-59
2023/04/23 12:22:46;;;;;;;6.15;1.67;;;;;;;;;;5059718;28;20111;-59
2023/04/23 12:25:13;;;;;;;2.85;1.50;;;;;;;;;;5063244;28;20057;-59
2023/04/23 12:27:41;;;;;;;4.50;1.40;;;;;;;;;;5060565;28;20080;-60
2023/04/23 12:30:07;;;;;;;3.97;1.55;;;;;;;;;;5070104;28;20351;-60
2023/04/23 12:32:34;;;;;;;5.85;1.80;;;;;;;;;;5069149;28;20056;-60
2023/04/23 12:35:00;;;;;;;2.70;1.05;;;;;;;;;;5044162;28;20644;-58
2023/04/23 12:37:28;;;;;;;6.25;1.30;;;;;;;;;;5044594;28;20052;-60
2023/04/23 12:39:55;;;;;;;4.43;1.52;;;;;;;;;;5062525;28;20053;-60
2023/04/23 12:42:22;;;;;;;4.10;1.30;;;;;;;;;;5056371;28;20057;-59
2023/04/23 12:44:50;;;;;;;5.20;1.70;;;;;;;;;;5045548;28;20450;-61
2023/04/23 12:47:18;;;;;;;3.78;1.60;;;;;;;;;;5057757;28;20154;-59
2023/04/23 12:49:45;;;;;;;4.03;1.30;;;;;;;;;;5069023;28;20052;-57
2023/04/23 12:52:12;;;;;;;6.00;1.48;;;;;;;;;;5070469;28;20539;-58
2023/04/23 12:54:39;;;;;;;4.30;1.60;;;;;;;;;;5062192;28;20049;-61
2023/04/23 12:57:06;;;;;;;4.28;1.45;;;;;;;;;;5059744;28;20116;-60
2023/04/23 12:59:33;;;;;;;3.90;1.35;;;;;;;;;;5082416;28;20096;-60
2023/04/23 13:02:02;;;;;;;3.30;2.03;;;;;;;;;;5083291;28;20441;-60
2023/04/23 13:04:30;;;;;;;7.55;2.25;;;;;;;;;;5069489;28;20107;-58
2023/04/23 13:06:56;;;;;;;4.50;1.48;;;;;;;;;;5073285;28;20044;-60
2023/04/23 13:09:23;;;;;;;3.17;1.27;;;;;;;;;;5062025;28;20111;-60
2023/04/23 13:11:52;;;;;;;4.35;1.50;;;;;;;;;;5065022;28;20479;-59
2023/04/23 13:14:20;;;;;;;3.17;1.75;;;;;;;;;;5056029;28;20463;-60
2023/04/23 13:16:46;;;;;;;7.20;2.13;;;;;;;;;;5057937;28;20143;-59
2023/04/23 13:19:12;;;;;;;5.65;2.00;;;;;;;;;;5057929;28;20060;-60
2023/04/23 13:21:39;;;;;;;2.80;1.05;;;;;;;;;;5054306;28;20082;-59
2023/04/23 13:24:05;;;;;;;5.38;2.00;;;;;;;;;;5049610;28;20096;-60
2023/04/23 13:26:32;;;;;;;6.30;1.33;;;;;;;;;;5049096;28;20523;-58
2023/04/23 13:28:59;;;;;;;8.82;1.45;;;;;;;;;;5052805;28;20122;-61
2023/04/23 13:31:25;;;;;;;5.72;1.40;;;;;;;;;;5060231;28;20056;-60
2023/04/23 13:33:52;;;;;;;4.22;1.42;;;;;;;;;;5056514;28;20057;-60
2023/04/23 13:36:18;;;;;;;4.32;1.77;;;;;;;;;;5058151;28;20398;-59
2023/04/23 13:38:45;;;;;;;4.40;1.33;;;;;;;;;;5063628;28;20056;-60
2023/04/23 13:41:12;;;;;;;3.53;1.52;;;;;;;;;;5062234;28;20708;-60
2023/04/23 13:43:38;;;;;;;6.38;1.80;;;;;;;;;;5062462;28;20065;-58
2023/04/23 13:46:05;;;;;;;3.50;1.40;;;;;;;;;;5062773;28;20130;-60
2023/04/23 13:48:32;;;;;;;5.40;1.80;;;;;;;;;;5062391;28;20052;-59
2023/04/23 13:51:00;;;;;;;3.45;1.70;;;;;;;;;;5062778;28;20580;-61
2023/04/23 13:53:27;;;;;;;5.47;1.30;;;;;;;;;;5060390;28;20049;-59
2023/04/23 13:55:54;;;;;;;2.88;1.17;;;;;;;;;;5062590;28;20059;-56
2023/04/23 13:58:21;;;;;;;3.58;1.05;;;;;;;;;;5061799;28;20530;-56
2023/04/23 14:00:48;;;;;;;4.13;1.50;;;;;;;;;;5061954;28;20092;-59
2023/04/23 14:03:14;;;;;;;3.95;1.20;;;;;;;;;;5061232;28;20503;-57
2023/04/23 14:05:41;;;;;;;3.45;1.48;;;;;;;;;;5061255;28;20507;-57
2023/04/23 14:08:08;;;;;;;3.72;1.05;;;;;;;;;;5061782;28;20057;-59
2023/04/23 14:10:34;;;;;;;4.72;1.20;;;;;;;;;;5061433;28;20053;-59
2023/04/23 14:13:02;;;;;;;6.22;1.42;;;;;;;;;;5074917;28;20140;-56
2023/04/23 14:15:28;;;;;;;4.68;1.17;;;;;;;;;;5082602;28;20084;-58
2023/04/23 14:17:55;;;;;;;3.78;1.20;;;;;;;;;;5083162;28;20060;-58
2023/04/23 14:20:21;;;;;;;9.00;2.33;;;;;;;;;;5082175;28;20056;-58
2023/04/23 14:22:49;;;;;;;3.75;1.50;;;;;;;;;;5073742;28;20603;-59
2023/04/23 14:25:23;;;;;;;5.53;1.95;;;;;;;;;;5076697;28;20426;-59
2023/04/23 14:27:50;;;;;;;5.55;2.08;;;;;;;;;;5071530;28;20416;-58
2023/04/23 14:30:20;;;;;;;5.60;1.75;;;;;;;;;;5061867;28;20057;-57